首页
METAR-TAF:

METAR-TAF

机场 :

深圳, 中华人民共和国

深圳宝安国际机场

纬度: 22-33N, 经度: 114-06E, 海拔: 18米

当前天气观测

该预报发布于10分钟前的00:00 UTC
风速4节,风向西北,在西转西北之间变化
温度 18°C
湿度 94%
气压 1019 hPa
能見度: 2800
少量云层高于2000英尺
轻雾

METAR: ZGSZ 250000Z 31002MPS 290V360 2800 BR FEW020 18/17 Q1019 BECMG TL0120 3100

时间: 08:10 (00:10 UTC)

预报

该预报发布于4小时和52分钟前的19:18 UTC
预报有效从25日的 00点(UTC)到 25日的 24点(UTC)
风速8节,风向
能見度: 5000
少量云层高于1500英尺
多云层高于3500英尺
轻雾

TAF: ZGSZ 241918Z 2500/2524 35004MPS 5000 BR FEW015 BKN035 TX21/2507Z TN16/2523Z

超过4000个机场的气象观测和天气预报(METAR&TAF报告)。

可查询的气象台以黄色和红色小点在地图上表示。

将鼠标移到小点上方,可查看气象台名称。

然后点击查看天气观测和预报。

如需切换地图:点击带黑十字的绿色按钮放大地图;点击带横线的绿色按钮缩小地图;或者点击绿色箭头查看邻近地区的地图。


METAR-TAF: